Terminal Aerodrome Forecast
Issued by NWS

Home | Current Version | Previous Version | Text Only | Print | Product List | Glossary On
Versions: 1 2 3 4 5 6 7 8 9 10 11 12 13 14 15 16 17 18 19 20 21 22 23 24 25 26
000
FTUS42 KJAX 270831 AAB
TAFCRG
TAF AMD
KCRG 270831Z 2709/2806 36005KT P6SM BKN020 OVC150
      TEMPO 2710/2714 BKN030
     FM271400 02009KT P6SM FEW035 BKN200
     FM271700 03012G19KT P6SM FEW035 BKN250
     FM272300 02010KT P6SM SCT035 BKN250=

USA.gov is the U.S. government's official web portal to all federal, state and local government web resources and services.